sensor_id;sensor_type;location;lat;lon;timestamp;P1;durP1;ratioP1;P2;durP2;ratioP2
62037;SDS011;47991;42.974;12.082;2023-01-29T02:42:27;13.90;;;6.40;;
62037;SDS011;47991;42.974;12.082;2023-01-29T02:47:43;13.70;;;5.90;;
62037;SDS011;47991;42.974;12.082;2023-01-29T02:50:28;10.20;;;5.00;;
62037;SDS011;47991;42.974;12.082;2023-01-29T02:55:38;13.70;;;5.80;;
62037;SDS011;47991;42.974;12.082;2023-01-29T03:01:39;11.30;;;5.30;;
62037;SDS011;47991;42.974;12.082;2023-01-29T03:04:23;11.80;;;5.70;;
62037;SDS011;47991;42.974;12.082;2023-01-29T03:06:57;14.00;;;5.90;;
62037;SDS011;47991;42.974;12.082;2023-01-29T03:09:41;13.30;;;5.90;;
62037;SDS011;47991;42.974;12.082;2023-01-29T03:12:21;12.50;;;5.70;;
62037;SDS011;47991;42.974;12.082;2023-01-29T03:15:07;14.20;;;5.60;;
62037;SDS011;47991;42.974;12.082;2023-01-29T03:18:21;12.00;;;5.00;;
62037;SDS011;47991;42.974;12.082;2023-01-29T03:20:33;12.50;;;6.20;;
62037;SDS011;47991;42.974;12.082;2023-01-29T03:23:18;11.70;;;5.40;;
62037;SDS011;47991;42.974;12.082;2023-01-29T03:25:53;12.00;;;5.60;;
62037;SDS011;47991;42.974;12.082;2023-01-29T03:28:45;11.70;;;5.90;;
62037;SDS011;47991;42.974;12.082;2023-01-29T03:34:21;13.60;;;5.80;;
62037;SDS011;47991;42.974;12.082;2023-01-29T03:37:02;11.10;;;5.00;;
62037;SDS011;47991;42.974;12.082;2023-01-29T03:39:39;11.40;;;5.60;;
62037;SDS011;47991;42.974;12.082;2023-01-29T03:42:14;12.40;;;5.50;;
62037;SDS011;47991;42.974;12.082;2023-01-29T03:50:51;12.80;;;5.90;;
62037;SDS011;47991;42.974;12.082;2023-01-29T03:56:14;13.80;;;6.00;;
62037;SDS011;47991;42.974;12.082;2023-01-29T03:58:54;12.10;;;6.00;;
62037;SDS011;47991;42.974;12.082;2023-01-29T04:02:01;10.30;;;4.90;;
62037;SDS011;47991;42.974;12.082;2023-01-29T04:04:45;12.20;;;5.50;;
62037;SDS011;47991;42.974;12.082;2023-01-29T04:07:19;12.50;;;5.50;;
62037;SDS011;47991;42.974;12.082;2023-01-29T04:10:03;11.50;;;5.60;;
62037;SDS011;47991;42.974;12.082;2023-01-29T04:12:40;11.40;;;5.40;;
62037;SDS011;47991;42.974;12.082;2023-01-29T04:15:17;14.20;;;5.60;;
62037;SDS011;47991;42.974;12.082;2023-01-29T04:17:51;11.10;;;5.10;;
62037;SDS011;47991;42.974;12.082;2023-01-29T04:20:28;12.60;;;5.00;;
62037;SDS011;47991;42.974;12.082;2023-01-29T04:22:55;12.60;;;5.60;;
62037;SDS011;47991;42.974;12.082;2023-01-29T04:25:27;10.90;;;5.20;;
62037;SDS011;47991;42.974;12.082;2023-01-29T04:28:10;10.00;;;5.20;;
62037;SDS011;47991;42.974;12.082;2023-01-29T04:30:53;11.90;;;5.90;;
62037;SDS011;47991;42.974;12.082;2023-01-29T04:39:27;12.40;;;5.50;;
62037;SDS011;47991;42.974;12.082;2023-01-29T04:50:45;12.80;;;5.50;;
62037;SDS011;47991;42.974;12.082;2023-01-29T04:53:28;13.80;;;5.10;;
62037;SDS011;47991;42.974;12.082;2023-01-29T04:56:32;13.90;;;5.60;;
62037;SDS011;47991;42.974;12.082;2023-01-29T04:59:20;12.30;;;5.60;;
62037;SDS011;47991;42.974;12.082;2023-01-29T05:01:56;15.30;;;6.30;;
62037;SDS011;47991;42.974;12.082;2023-01-29T05:04:25;13.60;;;5.60;;
62037;SDS011;47991;42.974;12.082;2023-01-29T05:07:02;11.30;;;5.30;;
62037;SDS011;47991;42.974;12.082;2023-01-29T05:09:31;13.40;;;5.90;;
62037;SDS011;47991;42.974;12.082;2023-01-29T05:12:02;11.70;;;5.30;;
62037;SDS011;47991;42.974;12.082;2023-01-29T05:14:34;14.20;;;6.10;;
62037;SDS011;47991;42.974;12.082;2023-01-29T05:17:07;14.10;;;6.30;;
62037;SDS011;47991;42.974;12.082;2023-01-29T05:19:40;15.30;;;6.40;;
62037;SDS011;47991;42.974;12.082;2023-01-29T05:22:08;13.40;;;6.10;;
62037;SDS011;47991;42.974;12.082;2023-01-29T05:24:38;13.60;;;5.90;;
62037;SDS011;47991;42.974;12.082;2023-01-29T05:27:05;12.00;;;6.10;;
62037;SDS011;47991;42.974;12.082;2023-01-29T05:29:59;11.10;;;5.30;;
62037;SDS011;47991;42.974;12.082;2023-01-29T05:32:34;12.60;;;5.60;;
62037;SDS011;47991;42.974;12.082;2023-01-29T05:35:01;12.30;;;5.50;;
62037;SDS011;47991;42.974;12.082;2023-01-29T05:37:29;11.50;;;5.40;;
62037;SDS011;47991;42.974;12.082;2023-01-29T05:39:56;13.20;;;5.50;;
62037;SDS011;47991;42.974;12.082;2023-01-29T05:42:23;27.60;;;5.80;;
62037;SDS011;47991;42.974;12.082;2023-01-29T05:44:51;15.30;;;6.70;;
62037;SDS011;47991;42.974;12.082;2023-01-29T05:47:22;16.20;;;6.30;;
62037;SDS011;47991;42.974;12.082;2023-01-29T05:49:52;14.20;;;6.30;;
62037;SDS011;47991;42.974;12.082;2023-01-29T05:52:19;14.70;;;6.50;;
62037;SDS011;47991;42.974;12.082;2023-01-29T05:54:47;12.50;;;5.90;;
62037;SDS011;47991;42.974;12.082;2023-01-29T05:57:14;15.00;;;6.80;;
62037;SDS011;47991;42.974;12.082;2023-01-29T05:59:57;15.90;;;6.90;;
62037;SDS011;47991;42.974;12.082;2023-01-29T06:02:24;13.20;;;5.90;;
62037;SDS011;47991;42.974;12.082;2023-01-29T06:04:51;14.90;;;7.10;;
62037;SDS011;47991;42.974;12.082;2023-01-29T06:07:18;13.20;;;6.40;;
62037;SDS011;47991;42.974;12.082;2023-01-29T06:09:45;14.50;;;6.40;;
62037;SDS011;47991;42.974;12.082;2023-01-29T06:12:12;16.40;;;7.00;;
62037;SDS011;47991;42.974;12.082;2023-01-29T06:14:39;12.90;;;6.40;;
62037;SDS011;47991;42.974;12.082;2023-01-29T06:17:06;12.60;;;6.00;;
62037;SDS011;47991;42.974;12.082;2023-01-29T06:19:33;12.80;;;6.60;;
62037;SDS011;47991;42.974;12.082;2023-01-29T06:24:35;12.60;;;6.70;;
62037;SDS011;47991;42.974;12.082;2023-01-29T06:27:03;15.10;;;6.50;;
62037;SDS011;47991;42.974;12.082;2023-01-29T06:29:33;15.10;;;7.30;;
62037;SDS011;47991;42.974;12.082;2023-01-29T06:32:10;12.70;;;6.70;;
62037;SDS011;47991;42.974;12.082;2023-01-29T06:34:37;12.20;;;5.90;;
62037;SDS011;47991;42.974;12.082;2023-01-29T06:37:04;13.40;;;7.10;;
62037;SDS011;47991;42.974;12.082;2023-01-29T06:39:33;12.90;;;6.40;;
62037;SDS011;47991;42.974;12.082;2023-01-29T06:41:59;13.80;;;6.70;;
62037;SDS011;47991;42.974;12.082;2023-01-29T06:44:26;14.60;;;6.30;;
62037;SDS011;47991;42.974;12.082;2023-01-29T06:46:53;13.00;;;6.20;;
62037;SDS011;47991;42.974;12.082;2023-01-29T06:49:22;13.30;;;6.40;;
62037;SDS011;47991;42.974;12.082;2023-01-29T06:51:49;13.40;;;6.20;;
62037;SDS011;47991;42.974;12.082;2023-01-29T06:54:17;11.80;;;5.80;;
62037;SDS011;47991;42.974;12.082;2023-01-29T06:56:44;12.80;;;6.50;;
62037;SDS011;47991;42.974;12.082;2023-01-29T06:59:11;13.50;;;6.10;;
62037;SDS011;47991;42.974;12.082;2023-01-29T07:01:39;14.20;;;6.30;;
62037;SDS011;47991;42.974;12.082;2023-01-29T07:04:09;15.30;;;6.90;;
62037;SDS011;47991;42.974;12.082;2023-01-29T07:06:37;10.90;;;5.50;;
62037;SDS011;47991;42.974;12.082;2023-01-29T07:09:05;12.50;;;5.30;;
62037;SDS011;47991;42.974;12.082;2023-01-29T07:11:33;13.50;;;6.00;;
62037;SDS011;47991;42.974;12.082;2023-01-29T07:14:01;13.00;;;6.00;;
62037;SDS011;47991;42.974;12.082;2023-01-29T07:16:27;12.80;;;6.00;;
62037;SDS011;47991;42.974;12.082;2023-01-29T07:18:55;11.80;;;5.70;;
62037;SDS011;47991;42.974;12.082;2023-01-29T07:21:23;12.40;;;5.80;;
62037;SDS011;47991;42.974;12.082;2023-01-29T07:23:51;13.60;;;5.50;;
62037;SDS011;47991;42.974;12.082;2023-01-29T07:26:18;12.80;;;5.60;;
62037;SDS011;47991;42.974;12.082;2023-01-29T07:28:45;10.10;;;5.00;;
62037;SDS011;47991;42.974;12.082;2023-01-29T07:31:12;12.10;;;5.40;;
62037;SDS011;47991;42.974;12.082;2023-01-29T07:33:43;12.70;;;5.80;;
62037;SDS011;47991;42.974;12.082;2023-01-29T07:36:10;12.30;;;5.10;;
62037;SDS011;47991;42.974;12.082;2023-01-29T07:38:38;15.80;;;6.20;;
62037;SDS011;47991;42.974;12.082;2023-01-29T07:41:05;13.50;;;6.00;;
62037;SDS011;47991;42.974;12.082;2023-01-29T07:43:32;11.80;;;5.70;;
62037;SDS011;47991;42.974;12.082;2023-01-29T07:46:01;12.20;;;5.70;;
62037;SDS011;47991;42.974;12.082;2023-01-29T07:48:29;12.20;;;5.90;;
62037;SDS011;47991;42.974;12.082;2023-01-29T07:50:56;12.90;;;6.20;;
62037;SDS011;47991;42.974;12.082;2023-01-29T07:53:25;15.80;;;7.60;;
62037;SDS011;47991;42.974;12.082;2023-01-29T07:55:53;14.00;;;6.90;;
62037;SDS011;47991;42.974;12.082;2023-01-29T07:58:21;14.50;;;6.80;;
62037;SDS011;47991;42.974;12.082;2023-01-29T08:00:48;17.00;;;7.60;;
62037;SDS011;47991;42.974;12.082;2023-01-29T08:03:16;12.60;;;5.80;;
62037;SDS011;47991;42.974;12.082;2023-01-29T08:05:45;11.50;;;6.50;;
62037;SDS011;47991;42.974;12.082;2023-01-29T08:08:12;12.50;;;6.50;;
62037;SDS011;47991;42.974;12.082;2023-01-29T08:10:40;12.90;;;6.20;;
62037;SDS011;47991;42.974;12.082;2023-01-29T08:13:07;12.90;;;6.00;;
62037;SDS011;47991;42.974;12.082;2023-01-29T08:15:34;12.90;;;5.90;;
62037;SDS011;47991;42.974;12.082;2023-01-29T08:18:02;15.20;;;6.70;;
62037;SDS011;47991;42.974;12.082;2023-01-29T08:23:03;13.50;;;5.70;;
62037;SDS011;47991;42.974;12.082;2023-01-29T08:25:32;12.70;;;6.30;;
62037;SDS011;47991;42.974;12.082;2023-01-29T08:28:00;11.60;;;5.50;;
62037;SDS011;47991;42.974;12.082;2023-01-29T08:30:28;11.90;;;5.30;;
62037;SDS011;47991;42.974;12.082;2023-01-29T08:32:57;14.10;;;6.10;;
62037;SDS011;47991;42.974;12.082;2023-01-29T08:35:25;14.80;;;5.70;;
62037;SDS011;47991;42.974;12.082;2023-01-29T08:37:53;13.40;;;6.10;;
62037;SDS011;47991;42.974;12.082;2023-01-29T08:40:21;11.20;;;5.70;;
62037;SDS011;47991;42.974;12.082;2023-01-29T08:42:49;12.40;;;6.10;;
62037;SDS011;47991;42.974;12.082;2023-01-29T08:45:15;13.40;;;6.40;;
62037;SDS011;47991;42.974;12.082;2023-01-29T08:47:46;14.40;;;6.90;;
62037;SDS011;47991;42.974;12.082;2023-01-29T08:50:14;11.20;;;5.70;;
62037;SDS011;47991;42.974;12.082;2023-01-29T08:52:42;13.00;;;6.10;;
62037;SDS011;47991;42.974;12.082;2023-01-29T08:55:14;13.40;;;6.10;;
62037;SDS011;47991;42.974;12.082;2023-01-29T08:57:40;14.80;;;7.30;;
62037;SDS011;47991;42.974;12.082;2023-01-29T09:00:08;12.90;;;6.00;;
62037;SDS011;47991;42.974;12.082;2023-01-29T09:02:36;14.80;;;6.90;;
62037;SDS011;47991;42.974;12.082;2023-01-29T09:05:03;12.20;;;6.10;;
62037;SDS011;47991;42.974;12.082;2023-01-29T09:07:30;11.60;;;5.70;;
62037;SDS011;47991;42.974;12.082;2023-01-29T09:09:58;15.50;;;5.90;;
62037;SDS011;47991;42.974;12.082;2023-01-29T09:12:25;12.50;;;6.20;;
62037;SDS011;47991;42.974;12.082;2023-01-29T09:14:55;12.90;;;6.20;;
62037;SDS011;47991;42.974;12.082;2023-01-29T09:17:22;12.10;;;5.70;;
62037;SDS011;47991;42.974;12.082;2023-01-29T09:19:48;12.00;;;5.60;;
62037;SDS011;47991;42.974;12.082;2023-01-29T09:22:20;11.50;;;5.60;;
62037;SDS011;47991;42.974;12.082;2023-01-29T09:24:47;10.90;;;5.50;;
62037;SDS011;47991;42.974;12.082;2023-01-29T09:27:14;10.60;;;5.20;;
62037;SDS011;47991;42.974;12.082;2023-01-29T09:29:41;9.80;;;5.10;;
62037;SDS011;47991;42.974;12.082;2023-01-29T09:32:09;10.20;;;4.50;;
62037;SDS011;47991;42.974;12.082;2023-01-29T09:34:38;9.80;;;4.90;;
62037;SDS011;47991;42.974;12.082;2023-01-29T09:37:06;10.80;;;5.70;;
62037;SDS011;47991;42.974;12.082;2023-01-29T09:39:33;10.20;;;5.20;;
62037;SDS011;47991;42.974;12.082;2023-01-29T09:42:07;11.20;;;5.20;;
62037;SDS011;47991;42.974;12.082;2023-01-29T09:44:48;12.20;;;4.90;;
62037;SDS011;47991;42.974;12.082;2023-01-29T09:47:51;8.60;;;4.30;;
62037;SDS011;47991;42.974;12.082;2023-01-29T09:50:35;10.50;;;5.10;;
62037;SDS011;47991;42.974;12.082;2023-01-29T09:55:52;15.60;;;7.60;;
62037;SDS011;47991;42.974;12.082;2023-01-29T09:58:34;15.20;;;7.20;;
62037;SDS011;47991;42.974;12.082;2023-01-29T10:13:42;9.90;;;4.90;;
62037;SDS011;47991;42.974;12.082;2023-01-29T10:22:06;11.60;;;3.80;;
62037;SDS011;47991;42.974;12.082;2023-01-29T10:24:42;11.00;;;5.60;;
62037;SDS011;47991;42.974;12.082;2023-01-29T10:27:17;10.60;;;4.70;;
62037;SDS011;47991;42.974;12.082;2023-01-29T10:29:46;9.10;;;4.10;;
62037;SDS011;47991;42.974;12.082;2023-01-29T10:32:17;9.50;;;4.30;;
62037;SDS011;47991;42.974;12.082;2023-01-29T10:37:23;12.40;;;5.60;;
62037;SDS011;47991;42.974;12.082;2023-01-29T10:40:00;13.50;;;7.20;;
62037;SDS011;47991;42.974;12.082;2023-01-29T10:42:30;15.40;;;6.40;;
62037;SDS011;47991;42.974;12.082;2023-01-29T10:48:07;9.60;;;4.90;;
62037;SDS011;47991;42.974;12.082;2023-01-29T10:51:17;10.40;;;5.10;;
62037;SDS011;47991;42.974;12.082;2023-01-29T11:02:35;9.30;;;4.40;;
62037;SDS011;47991;42.974;12.082;2023-01-29T11:05:01;9.40;;;4.00;;
62037;SDS011;47991;42.974;12.082;2023-01-29T11:07:28;9.40;;;4.40;;
62037;SDS011;47991;42.974;12.082;2023-01-29T11:09:59;9.60;;;4.60;;
62037;SDS011;47991;42.974;12.082;2023-01-29T11:12:33;10.40;;;5.10;;
62037;SDS011;47991;42.974;12.082;2023-01-29T11:15:17;9.50;;;4.20;;
62037;SDS011;47991;42.974;12.082;2023-01-29T11:18:01;9.50;;;4.80;;
62037;SDS011;47991;42.974;12.082;2023-01-29T11:22:55;9.00;;;4.30;;
62037;SDS011;47991;42.974;12.082;2023-01-29T11:25:23;8.60;;;4.20;;
62037;SDS011;47991;42.974;12.082;2023-01-29T11:27:56;10.40;;;5.10;;
62037;SDS011;47991;42.974;12.082;2023-01-29T11:30:37;8.10;;;3.80;;
62037;SDS011;47991;42.974;12.082;2023-01-29T11:33:11;11.20;;;4.30;;
62037;SDS011;47991;42.974;12.082;2023-01-29T11:35:44;8.40;;;4.10;;
62037;SDS011;47991;42.974;12.082;2023-01-29T11:40:41;12.50;;;6.00;;
62037;SDS011;47991;42.974;12.082;2023-01-29T11:45:49;10.40;;;4.50;;
62037;SDS011;47991;42.974;12.082;2023-01-29T11:48:19;10.80;;;4.00;;
62037;SDS011;47991;42.974;12.082;2023-01-29T11:50:51;11.10;;;4.30;;
62037;SDS011;47991;42.974;12.082;2023-01-29T11:53:44;9.60;;;4.90;;
62037;SDS011;47991;42.974;12.082;2023-01-29T11:56:34;10.60;;;4.20;;
62037;SDS011;47991;42.974;12.082;2023-01-29T11:59:24;10.30;;;4.60;;
62037;SDS011;47991;42.974;12.082;2023-01-29T12:01:55;9.90;;;4.10;;
62037;SDS011;47991;42.974;12.082;2023-01-29T12:04:31;10.20;;;4.90;;
62037;SDS011;47991;42.974;12.082;2023-01-29T12:06:57;9.90;;;4.20;;
62037;SDS011;47991;42.974;12.082;2023-01-29T12:09:25;8.70;;;4.30;;
62037;SDS011;47991;42.974;12.082;2023-01-29T12:11:53;11.70;;;4.70;;
62037;SDS011;47991;42.974;12.082;2023-01-29T12:14:27;8.20;;;4.20;;
62037;SDS011;47991;42.974;12.082;2023-01-29T12:17:00;9.70;;;4.40;;
62037;SDS011;47991;42.974;12.082;2023-01-29T12:19:53;9.90;;;4.70;;
62037;SDS011;47991;42.974;12.082;2023-01-29T12:25:34;11.80;;;4.70;;
62037;SDS011;47991;42.974;12.082;2023-01-29T12:33:54;8.60;;;4.00;;
62037;SDS011;47991;42.974;12.082;2023-01-29T12:36:42;12.20;;;4.40;;
62037;SDS011;47991;42.974;12.082;2023-01-29T12:39:25;9.70;;;3.70;;
62037;SDS011;47991;42.974;12.082;2023-01-29T12:41:53;11.30;;;5.00;;
62037;SDS011;47991;42.974;12.082;2023-01-29T12:49:56;9.10;;;4.30;;
62037;SDS011;47991;42.974;12.082;2023-01-29T12:52:32;10.50;;;4.40;;
62037;SDS011;47991;42.974;12.082;2023-01-29T12:55:06;8.80;;;4.50;;
62037;SDS011;47991;42.974;12.082;2023-01-29T12:57:41;9.10;;;4.40;;
62037;SDS011;47991;42.974;12.082;2023-01-29T13:00:13;8.70;;;4.40;;
62037;SDS011;47991;42.974;12.082;2023-01-29T13:05:46;7.90;;;3.60;;
62037;SDS011;47991;42.974;12.082;2023-01-29T13:10:57;8.60;;;4.40;;
62037;SDS011;47991;42.974;12.082;2023-01-29T13:16:09;8.90;;;3.80;;
62037;SDS011;47991;42.974;12.082;2023-01-29T13:18:55;9.90;;;4.90;;
62037;SDS011;47991;42.974;12.082;2023-01-29T13:21:26;11.20;;;4.40;;
62037;SDS011;47991;42.974;12.082;2023-01-29T13:23:59;8.80;;;4.50;;
62037;SDS011;47991;42.974;12.082;2023-01-29T13:26:29;10.70;;;4.70;;
62037;SDS011;47991;42.974;12.082;2023-01-29T13:28:57;8.20;;;4.00;;
62037;SDS011;47991;42.974;12.082;2023-01-29T13:31:26;10.80;;;4.60;;
62037;SDS011;47991;42.974;12.082;2023-01-29T13:34:05;10.60;;;4.90;;
62037;SDS011;47991;42.974;12.082;2023-01-29T13:36:48;9.20;;;4.30;;
62037;SDS011;47991;42.974;12.082;2023-01-29T13:39:24;9.10;;;4.30;;
62037;SDS011;47991;42.974;12.082;2023-01-29T13:41:55;10.70;;;4.20;;
62037;SDS011;47991;42.974;12.082;2023-01-29T13:44:25;9.60;;;4.20;;
62037;SDS011;47991;42.974;12.082;2023-01-29T13:47:02;8.20;;;3.70;;
62037;SDS011;47991;42.974;12.082;2023-01-29T13:49:44;8.00;;;4.20;;
62037;SDS011;47991;42.974;12.082;2023-01-29T13:52:34;7.80;;;3.90;;
62037;SDS011;47991;42.974;12.082;2023-01-29T13:55:19;8.40;;;4.20;;
62037;SDS011;47991;42.974;12.082;2023-01-29T13:58:02;8.30;;;4.10;;
62037;SDS011;47991;42.974;12.082;2023-01-29T14:08:02;9.00;;;4.40;;
62037;SDS011;47991;42.974;12.082;2023-01-29T14:10:34;9.20;;;4.50;;
62037;SDS011;47991;42.974;12.082;2023-01-29T14:15:32;8.60;;;4.30;;
62037;SDS011;47991;42.974;12.082;2023-01-29T14:23:06;9.30;;;4.90;;
62037;SDS011;47991;42.974;12.082;2023-01-29T14:25:46;10.00;;;4.60;;
62037;SDS011;47991;42.974;12.082;2023-01-29T14:28:14;9.70;;;4.50;;
62037;SDS011;47991;42.974;12.082;2023-01-29T14:30:49;10.30;;;4.70;;
62037;SDS011;47991;42.974;12.082;2023-01-29T14:33:35;9.10;;;4.40;;
62037;SDS011;47991;42.974;12.082;2023-01-29T14:36:05;11.70;;;5.00;;
62037;SDS011;47991;42.974;12.082;2023-01-29T14:38:37;9.10;;;4.50;;
62037;SDS011;47991;42.974;12.082;2023-01-29T14:41:22;10.40;;;5.10;;
62037;SDS011;47991;42.974;12.082;2023-01-29T14:46:58;9.70;;;4.90;;
62037;SDS011;47991;42.974;12.082;2023-01-29T14:52:36;9.50;;;4.10;;
62037;SDS011;47991;42.974;12.082;2023-01-29T14:55:07;8.40;;;3.80;;
62037;SDS011;47991;42.974;12.082;2023-01-29T14:57:55;8.60;;;3.60;;
62037;SDS011;47991;42.974;12.082;2023-01-29T15:00:27;8.10;;;3.80;;
62037;SDS011;47991;42.974;12.082;2023-01-29T15:03:03;7.40;;;3.60;;
62037;SDS011;47991;42.974;12.082;2023-01-29T15:05:44;8.90;;;4.20;;
62037;SDS011;47991;42.974;12.082;2023-01-29T15:08:18;7.90;;;3.80;;
62037;SDS011;47991;42.974;12.082;2023-01-29T15:10:56;8.60;;;4.10;;
62037;SDS011;47991;42.974;12.082;2023-01-29T15:13:49;9.20;;;3.90;;
62037;SDS011;47991;42.974;12.082;2023-01-29T15:16:30;9.40;;;4.50;;
62037;SDS011;47991;42.974;12.082;2023-01-29T15:19:11;7.50;;;3.30;;
62037;SDS011;47991;42.974;12.082;2023-01-29T15:27:32;8.80;;;4.30;;
62037;SDS011;47991;42.974;12.082;2023-01-29T15:30:00;8.50;;;3.80;;
62037;SDS011;47991;42.974;12.082;2023-01-29T15:32:32;9.20;;;4.30;;
62037;SDS011;47991;42.974;12.082;2023-01-29T15:35:07;10.10;;;4.40;;
62037;SDS011;47991;42.974;12.082;2023-01-29T15:37:36;10.30;;;4.30;;
62037;SDS011;47991;42.974;12.082;2023-01-29T15:40:03;8.80;;;4.00;;
62037;SDS011;47991;42.974;12.082;2023-01-29T15:42:41;9.60;;;4.70;;
62037;SDS011;47991;42.974;12.082;2023-01-29T15:48:02;8.60;;;4.30;;
62037;SDS011;47991;42.974;12.082;2023-01-29T15:50:39;10.30;;;4.80;;
62037;SDS011;47991;42.974;12.082;2023-01-29T15:53:08;8.30;;;4.30;;
62037;SDS011;47991;42.974;12.082;2023-01-29T15:55:43;10.00;;;5.10;;
62037;SDS011;47991;42.974;12.082;2023-01-29T15:58:14;9.70;;;4.90;;
62037;SDS011;47991;42.974;12.082;2023-01-29T16:00:47;9.60;;;4.90;;
62037;SDS011;47991;42.974;12.082;2023-01-29T16:03:20;9.50;;;5.30;;
62037;SDS011;47991;42.974;12.082;2023-01-29T16:05:49;9.40;;;4.90;;
62037;SDS011;47991;42.974;12.082;2023-01-29T16:08:17;10.30;;;5.00;;
62037;SDS011;47991;42.974;12.082;2023-01-29T16:10:48;9.80;;;4.30;;
62037;SDS011;47991;42.974;12.082;2023-01-29T16:13:23;10.50;;;4.90;;
62037;SDS011;47991;42.974;12.082;2023-01-29T16:15:53;9.00;;;4.80;;
62037;SDS011;47991;42.974;12.082;2023-01-29T16:18:46;10.20;;;4.90;;
62037;SDS011;47991;42.974;12.082;2023-01-29T16:21:15;10.80;;;4.80;;
62037;SDS011;47991;42.974;12.082;2023-01-29T16:23:49;9.80;;;5.00;;
62037;SDS011;47991;42.974;12.082;2023-01-29T16:26:19;9.80;;;4.70;;
62037;SDS011;47991;42.974;12.082;2023-01-29T16:28:50;9.90;;;5.00;;
62037;SDS011;47991;42.974;12.082;2023-01-29T16:31:35;10.60;;;5.00;;
62037;SDS011;47991;42.974;12.082;2023-01-29T16:36:45;9.70;;;4.70;;
62037;SDS011;47991;42.974;12.082;2023-01-29T16:39:17;9.00;;;4.50;;
62037;SDS011;47991;42.974;12.082;2023-01-29T16:42:22;11.10;;;5.00;;
62037;SDS011;47991;42.974;12.082;2023-01-29T16:55:32;8.40;;;3.90;;
62037;SDS011;47991;42.974;12.082;2023-01-29T16:58:03;9.30;;;4.20;;
62037;SDS011;47991;42.974;12.082;2023-01-29T17:00:40;10.50;;;5.10;;
62037;SDS011;47991;42.974;12.082;2023-01-29T17:03:10;10.10;;;4.70;;
62037;SDS011;47991;42.974;12.082;2023-01-29T17:05:39;9.20;;;4.60;;
62037;SDS011;47991;42.974;12.082;2023-01-29T17:08:06;8.60;;;4.10;;
62037;SDS011;47991;42.974;12.082;2023-01-29T17:10:53;9.80;;;4.70;;
62037;SDS011;47991;42.974;12.082;2023-01-29T17:13:27;9.60;;;4.60;;
62037;SDS011;47991;42.974;12.082;2023-01-29T17:18:44;9.90;;;5.00;;
62037;SDS011;47991;42.974;12.082;2023-01-29T17:21:11;10.60;;;5.10;;
62037;SDS011;47991;42.974;12.082;2023-01-29T17:23:37;9.80;;;5.00;;
62037;SDS011;47991;42.974;12.082;2023-01-29T17:26:05;10.50;;;5.30;;
62037;SDS011;47991;42.974;12.082;2023-01-29T17:28:34;12.40;;;4.90;;
62037;SDS011;47991;42.974;12.082;2023-01-29T17:31:01;9.80;;;4.90;;
62037;SDS011;47991;42.974;12.082;2023-01-29T17:33:28;10.40;;;5.20;;
62037;SDS011;47991;42.974;12.082;2023-01-29T17:35:54;11.30;;;5.50;;
62037;SDS011;47991;42.974;12.082;2023-01-29T17:38:21;10.70;;;5.10;;
62037;SDS011;47991;42.974;12.082;2023-01-29T17:40:50;12.80;;;5.80;;
62037;SDS011;47991;42.974;12.082;2023-01-29T17:43:23;10.50;;;5.40;;
62037;SDS011;47991;42.974;12.082;2023-01-29T17:45:49;10.00;;;4.60;;
62037;SDS011;47991;42.974;12.082;2023-01-29T17:48:25;12.10;;;6.50;;
62037;SDS011;47991;42.974;12.082;2023-01-29T17:51:01;12.70;;;6.30;;
62037;SDS011;47991;42.974;12.082;2023-01-29T17:53:29;11.10;;;6.20;;
62037;SDS011;47991;42.974;12.082;2023-01-29T17:55:56;10.80;;;5.40;;
62037;SDS011;47991;42.974;12.082;2023-01-29T17:58:23;11.60;;;5.70;;
62037;SDS011;47991;42.974;12.082;2023-01-29T18:00:52;9.80;;;4.80;;
62037;SDS011;47991;42.974;12.082;2023-01-29T18:03:19;11.40;;;6.00;;
62037;SDS011;47991;42.974;12.082;2023-01-29T18:05:47;10.10;;;5.20;;
62037;SDS011;47991;42.974;12.082;2023-01-29T18:08:18;10.90;;;5.00;;
62037;SDS011;47991;42.974;12.082;2023-01-29T18:10:51;9.60;;;4.60;;
62037;SDS011;47991;42.974;12.082;2023-01-29T18:13:18;9.90;;;4.60;;
62037;SDS011;47991;42.974;12.082;2023-01-29T18:15:44;10.60;;;5.40;;
62037;SDS011;47991;42.974;12.082;2023-01-29T18:18:12;10.80;;;5.30;;
62037;SDS011;47991;42.974;12.082;2023-01-29T18:20:39;10.60;;;5.50;;
62037;SDS011;47991;42.974;12.082;2023-01-29T18:23:07;8.70;;;4.50;;
62037;SDS011;47991;42.974;12.082;2023-01-29T18:25:33;9.40;;;5.00;;
62037;SDS011;47991;42.974;12.082;2023-01-29T18:28:00;10.30;;;5.00;;
62037;SDS011;47991;42.974;12.082;2023-01-29T18:30:28;11.40;;;5.20;;
62037;SDS011;47991;42.974;12.082;2023-01-29T18:32:54;10.90;;;4.90;;
62037;SDS011;47991;42.974;12.082;2023-01-29T18:35:21;9.80;;;5.00;;
62037;SDS011;47991;42.974;12.082;2023-01-29T18:37:48;9.40;;;4.20;;
62037;SDS011;47991;42.974;12.082;2023-01-29T18:40:16;9.70;;;4.50;;
62037;SDS011;47991;42.974;12.082;2023-01-29T18:42:44;9.70;;;4.60;;
62037;SDS011;47991;42.974;12.082;2023-01-29T18:45:11;10.00;;;4.20;;
62037;SDS011;47991;42.974;12.082;2023-01-29T18:47:42;9.20;;;4.40;;
62037;SDS011;47991;42.974;12.082;2023-01-29T18:50:14;9.00;;;4.40;;
62037;SDS011;47991;42.974;12.082;2023-01-29T18:52:44;9.20;;;4.20;;
62037;SDS011;47991;42.974;12.082;2023-01-29T18:55:11;11.10;;;5.30;;
62037;SDS011;47991;42.974;12.082;2023-01-29T18:57:37;9.00;;;4.40;;
62037;SDS011;47991;42.974;12.082;2023-01-29T19:00:05;9.30;;;4.80;;
62037;SDS011;47991;42.974;12.082;2023-01-29T19:02:33;11.30;;;4.60;;
62037;SDS011;47991;42.974;12.082;2023-01-29T19:04:59;10.80;;;5.20;;
62037;SDS011;47991;42.974;12.082;2023-01-29T19:07:26;9.20;;;4.70;;
62037;SDS011;47991;42.974;12.082;2023-01-29T19:09:53;8.20;;;4.30;;
62037;SDS011;47991;42.974;12.082;2023-01-29T19:12:20;10.60;;;4.90;;
62037;SDS011;47991;42.974;12.082;2023-01-29T19:14:47;9.70;;;4.80;;
62037;SDS011;47991;42.974;12.082;2023-01-29T19:17:14;10.10;;;4.90;;
62037;SDS011;47991;42.974;12.082;2023-01-29T19:19:40;9.50;;;4.90;;
62037;SDS011;47991;42.974;12.082;2023-01-29T19:22:07;8.70;;;4.30;;
62037;SDS011;47991;42.974;12.082;2023-01-29T19:24:33;12.40;;;4.70;;
62037;SDS011;47991;42.974;12.082;2023-01-29T19:27:04;9.70;;;4.90;;
62037;SDS011;47991;42.974;12.082;2023-01-29T19:29:31;10.10;;;4.60;;
62037;SDS011;47991;42.974;12.082;2023-01-29T19:31:58;9.20;;;4.20;;
62037;SDS011;47991;42.974;12.082;2023-01-29T19:34:25;10.00;;;4.90;;
62037;SDS011;47991;42.974;12.082;2023-01-29T19:36:51;10.50;;;5.00;;
62037;SDS011;47991;42.974;12.082;2023-01-29T19:39:18;9.90;;;4.90;;
62037;SDS011;47991;42.974;12.082;2023-01-29T19:41:44;10.30;;;5.00;;
62037;SDS011;47991;42.974;12.082;2023-01-29T19:44:11;12.30;;;5.60;;
62037;SDS011;47991;42.974;12.082;2023-01-29T19:46:37;10.60;;;5.20;;
62037;SDS011;47991;42.974;12.082;2023-01-29T19:49:04;9.50;;;4.50;;
62037;SDS011;47991;42.974;12.082;2023-01-29T19:51:31;10.40;;;5.30;;
62037;SDS011;47991;42.974;12.082;2023-01-29T19:53:58;10.20;;;5.30;;
62037;SDS011;47991;42.974;12.082;2023-01-29T19:56:25;10.90;;;4.90;;
62037;SDS011;47991;42.974;12.082;2023-01-29T19:58:52;10.40;;;5.20;;
62037;SDS011;47991;42.974;12.082;2023-01-29T20:01:22;15.50;;;5.10;;
62037;SDS011;47991;42.974;12.082;2023-01-29T20:03:50;9.70;;;5.20;;
62037;SDS011;47991;42.974;12.082;2023-01-29T20:06:18;12.70;;;6.40;;
62037;SDS011;47991;42.974;12.082;2023-01-29T20:11:14;12.50;;;6.40;;